createdAt,value
2023-02-01T00:00:19.910Z,3.26
2023-02-01T00:04:23.939Z,3.24
2023-02-01T00:08:27.063Z,3.22
2023-02-01T00:12:30.135Z,3.21
2023-02-01T00:16:34.779Z,3.20
2023-02-01T00:20:37.795Z,3.18
2023-02-01T00:24:40.811Z,3.19
2023-02-01T00:28:44.042Z,3.16
2023-02-01T00:32:48.547Z,3.18
2023-02-01T00:36:51.742Z,3.20
2023-02-01T00:40:54.750Z,3.20
2023-02-01T00:44:58.091Z,3.20
2023-02-01T00:49:02.682Z,3.24
2023-02-01T00:53:05.762Z,3.26
2023-02-01T00:57:09.037Z,3.29
2023-02-01T01:01:15.442Z,3.31
2023-02-01T01:05:20.186Z,3.32
2023-02-01T01:09:23.328Z,3.34
2023-02-01T01:13:26.681Z,3.32
2023-02-01T01:17:29.750Z,3.31
2023-02-01T01:21:34.307Z,3.32
2023-02-01T01:25:40.146Z,3.33
2023-02-01T01:29:43.329Z,3.33
2023-02-01T01:33:50.856Z,3.32
2023-02-01T01:37:55.475Z,3.32
2023-02-01T01:41:58.601Z,3.32
2023-02-01T01:46:03.433Z,3.34
2023-02-01T01:50:10.634Z,3.34
2023-02-01T01:54:19.484Z,3.37
2023-02-01T01:58:27.369Z,3.40
2023-02-01T02:02:31.303Z,3.40
2023-02-01T02:06:42.775Z,3.43
2023-02-01T02:11:02.406Z,3.45
2023-02-01T02:15:07.591Z,3.43
2023-02-01T02:19:33.204Z,3.43
2023-02-01T02:24:17.799Z,3.44
2023-02-01T02:28:45.322Z,3.45
2023-02-01T02:33:26.174Z,3.50
2023-02-01T02:37:40.108Z,3.52
2023-02-01T02:42:09.081Z,3.58
2023-02-01T02:46:45.005Z,3.60
2023-02-01T02:51:13.282Z,3.62
2023-02-01T02:55:18.138Z,3.63
2023-02-01T02:59:42.850Z,3.65
2023-02-01T03:04:04.469Z,3.69
2023-02-01T03:08:13.629Z,3.68
2023-02-01T03:12:36.398Z,3.64
2023-02-01T03:16:46.662Z,3.65
2023-02-01T03:20:54.475Z,3.62
2023-02-01T03:25:01.573Z,3.65
2023-02-01T03:29:14.636Z,3.62
2023-02-01T03:33:25.083Z,3.61
2023-02-01T03:37:30.140Z,3.61
2023-02-01T03:41:39.993Z,3.57
2023-02-01T03:45:50.076Z,3.56
2023-02-01T03:49:58.599Z,3.55
2023-02-01T03:54:05.505Z,3.55
2023-02-01T03:58:11.626Z,3.56
2023-02-01T04:02:16.606Z,3.56
2023-02-01T04:06:20.774Z,3.57
2023-02-01T04:10:25.397Z,3.56
2023-02-01T04:14:28.648Z,3.58
2023-02-01T04:18:33.041Z,3.55
2023-02-01T04:22:36.183Z,3.55
2023-02-01T04:26:39.277Z,3.57
2023-02-01T04:30:42.481Z,3.55
2023-02-01T04:34:46.965Z,3.55
2023-02-01T04:38:50.832Z,3.57
2023-02-01T04:42:53.900Z,3.57
2023-02-01T04:46:57.015Z,3.58
2023-02-01T04:51:01.449Z,3.58
2023-02-01T04:55:05.618Z,3.61
2023-02-01T04:59:08.809Z,3.64
2023-02-01T05:03:12.252Z,3.62
2023-02-01T05:07:16.668Z,3.62
2023-02-01T05:11:33.587Z,3.65
2023-02-01T05:15:36.741Z,3.67
2023-02-01T05:19:39.776Z,3.68
2023-02-01T05:24:01.954Z,3.71
2023-02-01T05:28:05.377Z,3.72
2023-02-01T05:32:21.032Z,3.77
2023-02-01T05:36:24.982Z,3.77
2023-02-01T05:40:29.568Z,3.78
2023-02-01T05:44:32.615Z,3.82
2023-02-01T05:48:35.615Z,3.81
2023-02-01T05:52:38.652Z,3.80
2023-02-01T05:56:43.105Z,3.82
2023-02-01T06:00:46.091Z,3.84
2023-02-01T06:04:49.400Z,3.84
2023-02-01T06:08:52.424Z,3.84
2023-02-01T06:12:56.824Z,3.84
2023-02-01T06:16:59.894Z,3.83
2023-02-01T06:21:03.399Z,3.87
2023-02-01T06:25:08.064Z,3.92
2023-02-01T06:29:13.498Z,3.93
2023-02-01T06:33:16.971Z,3.97
2023-02-01T06:37:20.134Z,4.01
2023-02-01T06:41:23.149Z,4.05
2023-02-01T06:45:27.650Z,4.10
2023-02-01T06:49:30.656Z,4.12
2023-02-01T06:53:33.847Z,4.13
2023-02-01T06:57:36.920Z,4.14
2023-02-01T07:01:41.576Z,4.14
2023-02-01T07:05:45.363Z,4.17
2023-02-01T07:09:48.431Z,4.17
2023-02-01T07:13:52.017Z,4.16
2023-02-01T07:17:57.836Z,4.15
2023-02-01T07:22:00.944Z,4.18
2023-02-01T07:26:06.681Z,4.19
2023-02-01T07:30:11.384Z,4.22
2023-02-01T07:34:15.992Z,4.26
2023-02-01T07:38:20.585Z,4.30
2023-02-01T07:42:23.630Z,4.31
2023-02-01T07:46:26.752Z,4.30
2023-02-01T07:50:31.459Z,4.32
2023-02-01T07:54:34.549Z,4.35
2023-02-01T07:58:37.553Z,4.38
2023-02-01T08:02:40.697Z,4.41
2023-02-01T08:06:45.286Z,4.47
2023-02-01T08:10:48.314Z,4.48
2023-02-01T08:14:51.369Z,4.53
2023-02-01T08:18:55.541Z,4.58
2023-02-01T08:22:59.915Z,4.60
2023-02-01T08:27:03.479Z,4.61
2023-02-01T08:31:08.194Z,4.65
2023-02-01T08:35:11.535Z,4.68
2023-02-01T08:39:15.960Z,4.70
2023-02-01T08:43:20.500Z,4.75
2023-02-01T08:47:23.921Z,4.76
2023-02-01T08:51:27.019Z,4.78
2023-02-01T08:55:31.454Z,4.82
2023-02-01T08:59:34.544Z,4.83
2023-02-01T09:03:38.121Z,4.85
2023-02-01T09:07:41.467Z,4.88
2023-02-01T09:11:45.886Z,4.89
2023-02-01T09:15:48.973Z,4.90
2023-02-01T09:19:52.148Z,4.92
2023-02-01T09:23:55.322Z,4.90
2023-02-01T09:27:59.886Z,4.84
2023-02-01T09:32:04.627Z,4.82
2023-02-01T09:36:08.421Z,4.81
2023-02-01T09:40:15.914Z,4.77
2023-02-01T09:44:44.655Z,4.75
2023-02-01T09:48:50.076Z,4.74
2023-02-01T09:52:59.779Z,4.75
2023-02-01T09:57:09.871Z,4.72
2023-02-01T10:01:20.226Z,4.70
2023-02-01T10:05:36.670Z,4.67
2023-02-01T10:09:55.190Z,4.68
2023-02-01T10:14:07.079Z,4.71
2023-02-01T10:18:33.913Z,4.77
2023-02-01T10:23:08.717Z,4.86
2023-02-01T10:27:15.148Z,5.00
2023-02-01T10:31:19.514Z,5.08
2023-02-01T10:35:30.580Z,5.11
2023-02-01T10:39:34.519Z,5.16
2023-02-01T10:43:37.719Z,5.19
2023-02-01T10:47:40.792Z,5.20
2023-02-01T10:51:51.950Z,5.21
2023-02-01T10:55:55.753Z,5.18
2023-02-01T10:59:58.797Z,5.18
2023-02-01T11:04:03.311Z,5.15
2023-02-01T11:08:07.747Z,5.12
2023-02-01T11:12:27.852Z,5.21
2023-02-01T11:16:35.676Z,5.19
2023-02-01T11:20:43.545Z,5.10
2023-02-01T11:24:48.955Z,5.05
2023-02-01T11:28:56.890Z,5.06
2023-02-01T11:33:01.431Z,5.00
2023-02-01T11:37:05.404Z,4.92
2023-02-01T11:41:22.757Z,4.82
2023-02-01T11:45:31.645Z,4.68
2023-02-01T11:49:34.960Z,4.59
2023-02-01T11:53:55.240Z,4.54
2023-02-01T11:58:16.136Z,4.45
2023-02-01T12:02:41.282Z,4.45
2023-02-01T12:06:53.436Z,4.40
2023-02-01T12:11:18.799Z,4.34
2023-02-01T12:15:36.349Z,4.27
2023-02-01T12:19:57.001Z,4.27
2023-02-01T12:24:18.067Z,4.27
2023-02-01T12:28:44.111Z,4.31
2023-02-01T12:33:01.868Z,4.44
2023-02-01T12:37:17.081Z,4.61
2023-02-01T12:41:42.685Z,4.75
2023-02-01T12:45:49.092Z,4.78
2023-02-01T12:50:00.563Z,4.81
2023-02-01T12:54:14.224Z,4.83
2023-02-01T12:58:22.557Z,4.87
2023-02-01T13:02:34.359Z,4.93
2023-02-01T13:06:44.798Z,5.10
2023-02-01T13:10:50.620Z,5.24
2023-02-01T13:14:57.296Z,5.27
2023-02-01T13:19:10.577Z,5.33
2023-02-01T13:23:26.095Z,5.33
2023-02-01T13:27:31.495Z,5.41
2023-02-01T13:31:57.048Z,5.47
2023-02-01T13:36:24.144Z,5.47
2023-02-01T13:40:43.348Z,5.48
2023-02-01T13:44:51.126Z,5.53
2023-02-01T13:48:58.428Z,5.58
2023-02-01T13:53:03.495Z,5.61
2023-02-01T13:57:28.992Z,5.65
2023-02-01T14:01:37.249Z,5.72
2023-02-01T14:06:17.245Z,5.76
2023-02-01T14:10:49.172Z,5.79
2023-02-01T14:14:53.657Z,5.82
2023-02-01T14:19:04.287Z,5.81
2023-02-01T14:23:16.154Z,5.78
2023-02-01T14:27:23.469Z,5.77
2023-02-01T14:31:54.595Z,5.73
2023-02-01T14:36:08.039Z,5.69
2023-02-01T14:40:22.140Z,5.63
2023-02-01T14:44:28.617Z,5.59
2023-02-01T14:48:49.759Z,5.53
2023-02-01T14:53:03.950Z,5.50
2023-02-01T14:57:07.415Z,5.43
2023-02-01T15:01:19.447Z,5.34
2023-02-01T15:05:34.000Z,5.17
2023-02-01T15:09:40.130Z,5.10
2023-02-01T15:13:52.884Z,5.04
2023-02-01T15:17:59.701Z,4.94
2023-02-01T15:22:04.325Z,4.87
2023-02-01T15:26:07.430Z,4.82
2023-02-01T15:30:19.158Z,4.79
2023-02-01T15:34:23.483Z,4.74
2023-02-01T15:38:39.245Z,4.68
2023-02-01T15:42:54.094Z,4.62
2023-02-01T15:46:57.489Z,4.59
2023-02-01T15:51:01.728Z,4.53
2023-02-01T15:55:09.449Z,4.50
2023-02-01T15:59:18.689Z,4.48
2023-02-01T16:03:35.947Z,4.45
2023-02-01T16:07:39.019Z,4.46
2023-02-01T16:11:51.424Z,4.45
2023-02-01T16:15:54.509Z,4.43
2023-02-01T16:19:58.275Z,4.40
2023-02-01T16:24:04.866Z,4.39
2023-02-01T16:28:09.832Z,4.41
2023-02-01T16:32:19.649Z,4.41
2023-02-01T16:36:23.595Z,4.43
2023-02-01T16:40:26.679Z,4.40
2023-02-01T16:44:31.079Z,4.43
2023-02-01T16:48:37.147Z,4.43
2023-02-01T16:52:41.262Z,4.44
2023-02-01T16:56:46.531Z,4.41
2023-02-01T17:00:51.920Z,4.40
2023-02-01T17:04:55.302Z,4.41
2023-02-01T17:09:00.003Z,4.43
2023-02-01T17:13:03.724Z,4.40
2023-02-01T17:17:10.033Z,4.40
2023-02-01T17:21:13.161Z,4.39
2023-02-01T17:25:18.904Z,4.39
2023-02-01T17:29:22.232Z,4.40
2023-02-01T17:33:29.667Z,4.43
2023-02-01T17:37:39.394Z,4.43
2023-02-01T17:41:42.519Z,4.41
2023-02-01T17:45:52.615Z,4.38
2023-02-01T17:49:57.426Z,4.38
2023-02-01T17:54:00.487Z,4.39
2023-02-01T17:58:03.864Z,4.38
2023-02-01T18:02:19.276Z,4.37
2023-02-01T18:06:26.503Z,4.39
2023-02-01T18:10:29.574Z,4.35
2023-02-01T18:14:33.759Z,4.38
2023-02-01T18:18:38.155Z,4.38
2023-02-01T18:22:44.044Z,4.37
2023-02-01T18:26:47.154Z,4.36
2023-02-01T18:30:51.890Z,4.38
2023-02-01T18:34:55.793Z,4.34
2023-02-01T18:39:00.314Z,4.36
2023-02-01T18:43:04.113Z,4.36
2023-02-01T18:47:07.123Z,4.33
2023-02-01T18:51:11.753Z,4.26
2023-02-01T18:55:16.199Z,4.17
2023-02-01T18:59:19.699Z,4.08
2023-02-01T19:03:26.234Z,4.05
2023-02-01T19:07:29.522Z,4.02
2023-02-01T19:11:33.945Z,4.09
2023-02-01T19:15:40.370Z,4.08
2023-02-01T19:19:44.559Z,4.09
2023-02-01T19:23:47.635Z,4.09
2023-02-01T19:27:53.024Z,4.08
2023-02-01T19:31:56.981Z,4.07
2023-02-01T19:36:00.969Z,4.09
2023-02-01T19:40:04.015Z,4.09
2023-02-01T19:44:08.671Z,4.05
2023-02-01T19:48:13.162Z,4.02
2023-02-01T19:52:16.247Z,4.01
2023-02-01T19:56:19.279Z,4.02
2023-02-01T20:00:23.482Z,4.03
2023-02-01T20:04:26.959Z,4.06
2023-02-01T20:08:30.151Z,4.08
2023-02-01T20:12:33.495Z,4.08
2023-02-01T20:16:38.396Z,4.11
2023-02-01T20:20:41.882Z,4.11
2023-02-01T20:24:44.896Z,4.11
2023-02-01T20:28:48.890Z,4.15
2023-02-01T20:32:53.523Z,4.17
2023-02-01T20:36:56.542Z,4.19
2023-02-01T20:41:06.824Z,4.22
2023-02-01T20:45:10.875Z,4.22
2023-02-01T20:49:15.399Z,4.21
2023-02-01T20:53:26.683Z,4.21
2023-02-01T20:57:30.160Z,4.23
2023-02-01T21:01:33.231Z,4.25
2023-02-01T21:05:41.058Z,4.24
2023-02-01T21:09:45.072Z,4.25
2023-02-01T21:13:51.599Z,4.24
2023-02-01T21:17:55.299Z,4.23
2023-02-01T21:21:59.767Z,4.30
2023-02-01T21:26:03.458Z,4.28
2023-02-01T21:30:08.871Z,4.30
2023-02-01T21:34:12.377Z,4.33
2023-02-01T21:38:17.327Z,4.36
2023-02-01T21:42:22.039Z,4.37
2023-02-01T21:46:25.126Z,4.41
2023-02-01T21:50:28.152Z,4.43
2023-02-01T21:54:32.584Z,4.41
2023-02-01T21:58:35.650Z,4.44
2023-02-01T22:02:38.878Z,4.46
2023-02-01T22:06:45.947Z,4.45
2023-02-01T22:10:50.508Z,4.44
2023-02-01T22:14:53.595Z,4.45
2023-02-01T22:18:56.911Z,4.42
2023-02-01T22:23:00.056Z,4.44
2023-02-01T22:27:14.294Z,4.45
2023-02-01T22:31:18.509Z,4.45
2023-02-01T22:35:21.977Z,4.46
2023-02-01T22:39:25.438Z,4.47
2023-02-01T22:43:30.085Z,4.46
2023-02-01T22:47:33.111Z,4.47
2023-02-01T22:51:36.303Z,4.47
2023-02-01T22:55:40.967Z,4.47
2023-02-01T22:59:45.407Z,4.51
2023-02-01T23:03:48.454Z,4.09
2023-02-01T23:07:51.687Z,3.51
2023-02-01T23:11:55.636Z,3.15
2023-02-01T23:16:00.115Z,2.81
2023-02-01T23:20:03.651Z,2.72
2023-02-01T23:24:08.405Z,2.67
2023-02-01T23:28:11.476Z,2.61
2023-02-01T23:32:17.219Z,2.50
2023-02-01T23:36:20.500Z,2.43
2023-02-01T23:40:23.509Z,2.36
2023-02-01T23:44:26.617Z,2.35
2023-02-01T23:48:31.069Z,2.36
2023-02-01T23:52:34.094Z,2.38
2023-02-01T23:56:39.295Z,2.30
